RÉSULTATS    Trail de la Forêt de Russy - Édition du 13/10/2019


Vous pouvez changer la distance ici.

Vous pouvez changer la distance ici.

Classement PDF Général Classement PDF Alphabétique Photos de l'évènement Classement Temps Réel - Temps Puce

Chargement des statistiques en cours




Pos. Temps Nom - Prénom Club Dossard Catégorie km/h
151 00:43:55 SALINGUE Veronique AJ BLOIS-ONZAIN 1355 V2F (7 / 30) 10.9
152 00:43:57 LENGLET Tiffany 1569 SEF (22 / 71) 10.9
153 00:44:01 BALANDIER Cecile 1447 V1F (13 / 71) 10.9
154 00:44:06 GAUTHIER Martine 1443 V3F (1 / 3) 10.8
155 00:44:07 PESTY Natacha BTP CFA 1308 V1F (14 / 71) 10.8
156 00:44:11 NAVARRE Virginie 1528 V1F (15 / 71) 10.8
157 00:44:11 SAMSON Denis 1431 V1M (31 / 53) 10.8
158 00:44:12 CHARBONNEAU Julien 1417 SEM (39 / 57) 10.8
159 00:44:16 RODRIGUES Jean pierre 1230 V1M (32 / 53) 10.8
160 00:44:18 MANDARD Claude 1393 V3M (8 / 19) 10.8
161 00:44:18 ROLINAT Delphine 1424 SEF (23 / 71) 10.8
162 00:44:22 COLIN Emmanuelle 1340 V1F (16 / 71) 10.8
163 00:44:35 BRIANT Laurine 1289 SEF (24 / 71) 10.7
164 00:44:35 BOURGOIN Elodie 1304 V1F (17 / 71) 10.7
165 00:44:38 BRIANT Didier ASJ ATHLETISME CHAUSSEE ST VIC 1421 V2M (16 / 31) 10.7
166 00:44:39 LIAUMET Claire 1356 SEF (25 / 71) 10.7
167 00:44:44 BOULAY Lucie 1398 SEF (26 / 71) 10.7
168 00:44:44 MANSON Gregoire AC CLOYES 1402 V1M (33 / 53) 10.7
169 00:44:45 PALLY Melanie 1407 SEF (27 / 71) 10.7
170 00:44:47 ANDERT Sandrine WORDLINE 1370 V1F (18 / 71) 10.7
171 00:44:50 BIENVENU Marie laure 1361 V1F (19 / 71) 10.7
172 00:45:10 LELOUP Celine 1391 V1F (20 / 71) 10.6
173 00:45:15 CORMIER Christine 1480 V1F (21 / 71) 10.6
174 00:45:17 BOUBAAINE Zakarya WORDLINE 1366 SEM (40 / 57) 10.6
175 00:45:20 TROUILLEBOUT Benoit 1377 SEM (41 / 57) 10.5